Camp Meeker, CA

9:34 PM PST on December 20, 2014 (GMT -0800)
Napa County | Change Station
CLOSE
Current Station
Airport
Location: Napa County,
Elevation: 33 ft
Nearby Weather Stations
Active Advisory: Coastal Flood Advisory

Elev 33 ft 38.21 °N, 122.28 °W | Updated 40 minutes ago

Overcast
Overcast
57 °F
Feels Like 57 °F
N
5
Wind Variable Wind from South

Today
High -- | Low -- °F
--% Chance of Precip.
Yesterday
High -- | Low -- °F
Precip. -- in
7:24 AM 4:54 PM
Waning Crescent, 1% visible
Pressure 30.21 in
Visibility 10.0 miles
Clouds Overcast 1400 ft
Dew Point 54 °F
Humidity 89%
Rainfall 0.00 in
Snow Depth Not available.
UV 0 out of 12
Pollen 4.00 out of 12
Air Quality Not available.
Flu Activity Not available.
METAR KAPC 210454Z AUTO 18004KT 10SM OVC014 14/12 A3023 RMK AO2 SLP229 T01390122

More Conditions Fewer Conditions

Pressure 30.21 in
Visibility 10.0 miles
Clouds Overcast 1400 ft
Dew Point 54 °F
Humidity 89%
Rainfall 0.00 in
Snow Depth Not available.
UV 0 out of 12
Pollen 4.00 out of 12
Air Quality Not available.
Flu Activity Not available.
METAR KAPC 210454Z AUTO 18004KT 10SM OVC014 14/12 A3023 RMK AO2 SLP229 T01390122

More Conditions Fewer Conditions

10-Day Weather Forecast

Almanac

Astronomy

Dec. 20, 2014 Rise Set
Actual Time
Civil Twilight
Nautical Twilight
Astronomical Twilight
Moon
Length of Visible Light
Length of Day
Tomorrow will be .
, % of the Moon is Illuminated

Today's Extremes

State Highs State Lows

Community

WunderPhotos

Upload Photos

1,779,359 photos uploaded!

WunderBlogs® & News

Nearby

Air Quality

  Air Quality AQ Index Pollutant
Not available.

Snow Depth

Station Depth Elevation

Earthquake Activity

City Distance Mag. Time & Date
Minimum magnitude displayed is 2.5.

Coastal Water Temperatures

Place Temperature

Nearby Weather Stations